sensor_id;sensor_type;location;lat;lon;timestamp;temperature;humidity
43524;DHT22;29120;52.006;6.020;2022-08-02T00:00:00;14.90;81.70
43524;DHT22;29120;52.006;6.020;2022-08-02T00:02:26;14.90;81.90
43524;DHT22;29120;52.006;6.020;2022-08-02T00:04:52;14.90;82.00
43524;DHT22;29120;52.006;6.020;2022-08-02T00:07:18;15.00;82.20
43524;DHT22;29120;52.006;6.020;2022-08-02T00:09:43;15.00;82.60
43524;DHT22;29120;52.006;6.020;2022-08-02T00:12:09;15.00;82.70
43524;DHT22;29120;52.006;6.020;2022-08-02T00:14:36;15.00;82.80
43524;DHT22;29120;52.006;6.020;2022-08-02T00:17:01;15.00;83.00
43524;DHT22;29120;52.006;6.020;2022-08-02T00:19:27;15.00;83.20
43524;DHT22;29120;52.006;6.020;2022-08-02T00:21:52;15.00;83.30
43524;DHT22;29120;52.006;6.020;2022-08-02T00:24:18;15.00;83.50
43524;DHT22;29120;52.006;6.020;2022-08-02T00:26:43;15.00;83.60
43524;DHT22;29120;52.006;6.020;2022-08-02T00:29:09;15.00;83.70
43524;DHT22;29120;52.006;6.020;2022-08-02T00:31:35;15.00;83.90
43524;DHT22;29120;52.006;6.020;2022-08-02T00:34:00;15.00;84.00
43524;DHT22;29120;52.006;6.020;2022-08-02T00:36:26;15.00;84.10
43524;DHT22;29120;52.006;6.020;2022-08-02T00:38:51;15.00;84.30
43524;DHT22;29120;52.006;6.020;2022-08-02T00:41:19;15.00;84.50
43524;DHT22;29120;52.006;6.020;2022-08-02T00:43:46;15.00;84.50
43524;DHT22;29120;52.006;6.020;2022-08-02T00:46:12;15.00;84.70
43524;DHT22;29120;52.006;6.020;2022-08-02T00:48:38;15.00;84.90
43524;DHT22;29120;52.006;6.020;2022-08-02T00:51:04;15.00;85.00
43524;DHT22;29120;52.006;6.020;2022-08-02T00:53:30;15.00;85.30
43524;DHT22;29120;52.006;6.020;2022-08-02T00:55:55;14.90;85.40
43524;DHT22;29120;52.006;6.020;2022-08-02T00:58:21;14.90;85.60
43524;DHT22;29120;52.006;6.020;2022-08-02T01:00:47;14.80;85.90
43524;DHT22;29120;52.006;6.020;2022-08-02T01:03:12;14.80;86.10
43524;DHT22;29120;52.006;6.020;2022-08-02T01:05:38;14.70;86.40
43524;DHT22;29120;52.006;6.020;2022-08-02T01:08:04;14.60;86.60
43524;DHT22;29120;52.006;6.020;2022-08-02T01:10:29;14.60;86.90
43524;DHT22;29120;52.006;6.020;2022-08-02T01:12:55;14.60;87.10
43524;DHT22;29120;52.006;6.020;2022-08-02T01:15:21;14.60;87.30
43524;DHT22;29120;52.006;6.020;2022-08-02T01:18:01;14.50;87.50
43524;DHT22;29120;52.006;6.020;2022-08-02T01:23:20;14.40;87.90
43524;DHT22;29120;52.006;6.020;2022-08-02T01:26:05;14.40;88.30
43524;DHT22;29120;52.006;6.020;2022-08-02T01:29:21;14.40;88.40
43524;DHT22;29120;52.006;6.020;2022-08-02T01:32:21;14.40;88.60
43524;DHT22;29120;52.006;6.020;2022-08-02T01:34:36;14.40;88.70
43524;DHT22;29120;52.006;6.020;2022-08-02T01:40:00;14.30;88.80
43524;DHT22;29120;52.006;6.020;2022-08-02T01:42:27;14.30;88.90
43524;DHT22;29120;52.006;6.020;2022-08-02T01:44:55;14.30;89.10
43524;DHT22;29120;52.006;6.020;2022-08-02T01:47:27;14.30;89.20
43524;DHT22;29120;52.006;6.020;2022-08-02T01:49:56;14.20;89.50
43524;DHT22;29120;52.006;6.020;2022-08-02T01:52:24;14.20;89.60
43524;DHT22;29120;52.006;6.020;2022-08-02T01:55:10;14.20;89.70
43524;DHT22;29120;52.006;6.020;2022-08-02T01:57:44;14.20;89.70
43524;DHT22;29120;52.006;6.020;2022-08-02T02:00:10;14.20;89.80
43524;DHT22;29120;52.006;6.020;2022-08-02T02:02:41;14.20;89.80
43524;DHT22;29120;52.006;6.020;2022-08-02T02:05:11;14.10;90.00
43524;DHT22;29120;52.006;6.020;2022-08-02T02:07:38;14.10;90.00
43524;DHT22;29120;52.006;6.020;2022-08-02T02:10:05;14.10;90.10
43524;DHT22;29120;52.006;6.020;2022-08-02T02:12:34;14.10;90.10
43524;DHT22;29120;52.006;6.020;2022-08-02T02:15:02;14.00;90.20
43524;DHT22;29120;52.006;6.020;2022-08-02T02:17:28;14.00;90.30
43524;DHT22;29120;52.006;6.020;2022-08-02T02:19:57;14.00;90.30
43524;DHT22;29120;52.006;6.020;2022-08-02T02:22:23;14.00;90.40
43524;DHT22;29120;52.006;6.020;2022-08-02T02:24:48;14.00;90.40
43524;DHT22;29120;52.006;6.020;2022-08-02T02:27:15;14.00;90.40
43524;DHT22;29120;52.006;6.020;2022-08-02T02:29:43;13.90;90.40
43524;DHT22;29120;52.006;6.020;2022-08-02T02:32:10;13.90;90.40
43524;DHT22;29120;52.006;6.020;2022-08-02T02:34:42;13.90;90.50
43524;DHT22;29120;52.006;6.020;2022-08-02T02:37:13;13.90;90.50
43524;DHT22;29120;52.006;6.020;2022-08-02T02:39:41;13.90;90.60
43524;DHT22;29120;52.006;6.020;2022-08-02T02:42:10;13.90;90.50
43524;DHT22;29120;52.006;6.020;2022-08-02T02:44:38;13.90;90.50
43524;DHT22;29120;52.006;6.020;2022-08-02T02:47:05;13.90;90.60
43524;DHT22;29120;52.006;6.020;2022-08-02T02:49:33;13.90;90.70
43524;DHT22;29120;52.006;6.020;2022-08-02T02:52:00;13.90;90.70
43524;DHT22;29120;52.006;6.020;2022-08-02T02:54:27;13.90;90.80
43524;DHT22;29120;52.006;6.020;2022-08-02T02:56:54;13.90;90.70
43524;DHT22;29120;52.006;6.020;2022-08-02T02:59:22;13.90;90.70
43524;DHT22;29120;52.006;6.020;2022-08-02T03:01:48;13.90;90.70
43524;DHT22;29120;52.006;6.020;2022-08-02T03:04:14;13.90;90.70
43524;DHT22;29120;52.006;6.020;2022-08-02T03:06:40;13.90;90.80
43524;DHT22;29120;52.006;6.020;2022-08-02T03:09:06;13.90;90.80
43524;DHT22;29120;52.006;6.020;2022-08-02T03:11:34;13.90;90.80
43524;DHT22;29120;52.006;6.020;2022-08-02T03:14:01;13.90;90.80
43524;DHT22;29120;52.006;6.020;2022-08-02T03:16:28;13.90;90.90
43524;DHT22;29120;52.006;6.020;2022-08-02T03:18:55;14.00;90.90
43524;DHT22;29120;52.006;6.020;2022-08-02T03:21:21;14.00;91.00
43524;DHT22;29120;52.006;6.020;2022-08-02T03:23:47;14.00;90.90
43524;DHT22;29120;52.006;6.020;2022-08-02T03:26:13;14.00;90.90
43524;DHT22;29120;52.006;6.020;2022-08-02T03:28:39;14.00;90.90
43524;DHT22;29120;52.006;6.020;2022-08-02T03:31:04;14.00;90.90
43524;DHT22;29120;52.006;6.020;2022-08-02T03:33:30;14.00;90.90
43524;DHT22;29120;52.006;6.020;2022-08-02T03:36:01;14.00;91.00
43524;DHT22;29120;52.006;6.020;2022-08-02T03:38:29;14.00;91.10
43524;DHT22;29120;52.006;6.020;2022-08-02T03:40:57;13.90;91.10
43524;DHT22;29120;52.006;6.020;2022-08-02T03:43:24;13.90;91.10
43524;DHT22;29120;52.006;6.020;2022-08-02T03:45:50;13.90;91.20
43524;DHT22;29120;52.006;6.020;2022-08-02T03:48:16;13.90;91.30
43524;DHT22;29120;52.006;6.020;2022-08-02T03:50:42;13.90;91.40
43524;DHT22;29120;52.006;6.020;2022-08-02T03:53:10;13.90;91.40
43524;DHT22;29120;52.006;6.020;2022-08-02T03:55:38;13.90;91.50
43524;DHT22;29120;52.006;6.020;2022-08-02T03:58:04;14.00;91.50
43524;DHT22;29120;52.006;6.020;2022-08-02T04:00:30;14.00;91.40
43524;DHT22;29120;52.006;6.020;2022-08-02T04:02:55;14.10;91.40
43524;DHT22;29120;52.006;6.020;2022-08-02T04:05:21;14.10;91.40
43524;DHT22;29120;52.006;6.020;2022-08-02T04:07:46;14.20;91.40
43524;DHT22;29120;52.006;6.020;2022-08-02T04:10:15;14.20;91.30
43524;DHT22;29120;52.006;6.020;2022-08-02T04:12:41;14.20;91.30
43524;DHT22;29120;52.006;6.020;2022-08-02T04:15:08;14.30;91.30
43524;DHT22;29120;52.006;6.020;2022-08-02T04:17:39;14.30;91.30
43524;DHT22;29120;52.006;6.020;2022-08-02T04:20:11;14.40;91.30
43524;DHT22;29120;52.006;6.020;2022-08-02T04:22:46;14.40;91.30
43524;DHT22;29120;52.006;6.020;2022-08-02T04:25:12;14.40;91.30
43524;DHT22;29120;52.006;6.020;2022-08-02T04:27:39;14.40;91.30
43524;DHT22;29120;52.006;6.020;2022-08-02T04:30:06;14.40;91.40
43524;DHT22;29120;52.006;6.020;2022-08-02T04:32:32;14.40;91.80
43524;DHT22;29120;52.006;6.020;2022-08-02T04:34:59;14.50;91.50
43524;DHT22;29120;52.006;6.020;2022-08-02T04:37:25;14.60;91.50
43524;DHT22;29120;52.006;6.020;2022-08-02T04:39:51;14.60;91.50
43524;DHT22;29120;52.006;6.020;2022-08-02T04:42:21;14.70;91.50
43524;DHT22;29120;52.006;6.020;2022-08-02T04:44:47;14.70;91.50
43524;DHT22;29120;52.006;6.020;2022-08-02T04:47:14;14.70;91.50
43524;DHT22;29120;52.006;6.020;2022-08-02T04:49:39;14.70;91.60
43524;DHT22;29120;52.006;6.020;2022-08-02T04:52:05;14.80;91.60
43524;DHT22;29120;52.006;6.020;2022-08-02T04:54:30;14.80;91.60
43524;DHT22;29120;52.006;6.020;2022-08-02T04:56:56;14.80;91.70
43524;DHT22;29120;52.006;6.020;2022-08-02T04:59:22;14.80;91.70
43524;DHT22;29120;52.006;6.020;2022-08-02T05:01:47;14.90;91.80
43524;DHT22;29120;52.006;6.020;2022-08-02T05:04:13;15.00;91.80
43524;DHT22;29120;52.006;6.020;2022-08-02T05:06:38;15.00;91.80
43524;DHT22;29120;52.006;6.020;2022-08-02T05:09:04;15.10;91.80
43524;DHT22;29120;52.006;6.020;2022-08-02T05:11:30;15.10;91.80
43524;DHT22;29120;52.006;6.020;2022-08-02T05:13:56;15.20;91.80
43524;DHT22;29120;52.006;6.020;2022-08-02T05:16:21;15.30;91.80
43524;DHT22;29120;52.006;6.020;2022-08-02T05:18:47;15.40;91.70
43524;DHT22;29120;52.006;6.020;2022-08-02T05:21:12;15.60;91.60
43524;DHT22;29120;52.006;6.020;2022-08-02T05:23:38;15.70;91.60
43524;DHT22;29120;52.006;6.020;2022-08-02T05:26:03;15.80;91.50
43524;DHT22;29120;52.006;6.020;2022-08-02T05:28:29;15.80;91.50
43524;DHT22;29120;52.006;6.020;2022-08-02T05:30:55;15.90;91.70
43524;DHT22;29120;52.006;6.020;2022-08-02T05:33:20;16.00;91.30
43524;DHT22;29120;52.006;6.020;2022-08-02T05:35:46;16.10;91.40
43524;DHT22;29120;52.006;6.020;2022-08-02T05:38:11;16.10;91.40
43524;DHT22;29120;52.006;6.020;2022-08-02T05:40:37;16.20;91.30
43524;DHT22;29120;52.006;6.020;2022-08-02T05:43:10;16.20;91.30
43524;DHT22;29120;52.006;6.020;2022-08-02T05:45:36;16.30;91.10
43524;DHT22;29120;52.006;6.020;2022-08-02T05:48:01;16.40;91.00
43524;DHT22;29120;52.006;6.020;2022-08-02T05:50:27;16.50;90.70
43524;DHT22;29120;52.006;6.020;2022-08-02T05:55:34;16.70;90.50
43524;DHT22;29120;52.006;6.020;2022-08-02T05:58:12;16.80;90.30
43524;DHT22;29120;52.006;6.020;2022-08-02T06:00:40;16.90;90.20
43524;DHT22;29120;52.006;6.020;2022-08-02T06:05:59;17.20;89.60
43524;DHT22;29120;52.006;6.020;2022-08-02T06:08:31;17.20;89.20
43524;DHT22;29120;52.006;6.020;2022-08-02T06:11:01;17.40;88.90
43524;DHT22;29120;52.006;6.020;2022-08-02T06:13:28;17.60;88.70
43524;DHT22;29120;52.006;6.020;2022-08-02T06:15:54;18.10;87.90
43524;DHT22;29120;52.006;6.020;2022-08-02T06:18:27;18.60;86.80
43524;DHT22;29120;52.006;6.020;2022-08-02T06:20:59;19.00;85.10
43524;DHT22;29120;52.006;6.020;2022-08-02T06:23:25;19.20;84.60
43524;DHT22;29120;52.006;6.020;2022-08-02T06:25:52;19.10;84.00
43524;DHT22;29120;52.006;6.020;2022-08-02T06:28:19;19.10;84.40
43524;DHT22;29120;52.006;6.020;2022-08-02T06:30:45;19.20;84.40
43524;DHT22;29120;52.006;6.020;2022-08-02T06:33:10;19.60;83.30
43524;DHT22;29120;52.006;6.020;2022-08-02T06:35:45;19.90;81.90
43524;DHT22;29120;52.006;6.020;2022-08-02T06:38:18;20.00;81.40
43524;DHT22;29120;52.006;6.020;2022-08-02T06:41:02;20.20;81.20
43524;DHT22;29120;52.006;6.020;2022-08-02T06:46:10;20.40;80.30
43524;DHT22;29120;52.006;6.020;2022-08-02T06:48:36;20.40;80.30
43524;DHT22;29120;52.006;6.020;2022-08-02T06:51:02;20.30;80.40
43524;DHT22;29120;52.006;6.020;2022-08-02T06:53:28;20.20;80.70
43524;DHT22;29120;52.006;6.020;2022-08-02T06:55:54;20.20;80.50
43524;DHT22;29120;52.006;6.020;2022-08-02T06:58:20;20.10;80.70
43524;DHT22;29120;52.006;6.020;2022-08-02T07:00:45;20.00;81.10
43524;DHT22;29120;52.006;6.020;2022-08-02T07:03:11;20.10;81.50
43524;DHT22;29120;52.006;6.020;2022-08-02T07:05:37;20.10;81.40
43524;DHT22;29120;52.006;6.020;2022-08-02T07:08:03;20.20;81.90
43524;DHT22;29120;52.006;6.020;2022-08-02T07:10:29;20.30;81.50
43524;DHT22;29120;52.006;6.020;2022-08-02T07:12:54;20.40;81.40
43524;DHT22;29120;52.006;6.020;2022-08-02T07:15:20;20.60;81.50
43524;DHT22;29120;52.006;6.020;2022-08-02T07:17:46;20.70;81.30
43524;DHT22;29120;52.006;6.020;2022-08-02T07:20:11;21.00;81.10
43524;DHT22;29120;52.006;6.020;2022-08-02T07:22:38;21.20;80.50
43524;DHT22;29120;52.006;6.020;2022-08-02T07:25:04;21.40;80.40
43524;DHT22;29120;52.006;6.020;2022-08-02T07:27:31;21.60;80.20
43524;DHT22;29120;52.006;6.020;2022-08-02T07:29:56;21.80;80.00
43524;DHT22;29120;52.006;6.020;2022-08-02T07:32:25;22.00;79.70
43524;DHT22;29120;52.006;6.020;2022-08-02T07:34:53;22.20;79.30
43524;DHT22;29120;52.006;6.020;2022-08-02T07:37:20;22.30;78.10
43524;DHT22;29120;52.006;6.020;2022-08-02T07:39:45;22.40;78.60
43524;DHT22;29120;52.006;6.020;2022-08-02T07:42:11;22.50;77.10
43524;DHT22;29120;52.006;6.020;2022-08-02T07:44:36;22.50;77.10
43524;DHT22;29120;52.006;6.020;2022-08-02T07:47:02;22.80;76.70
43524;DHT22;29120;52.006;6.020;2022-08-02T07:49:29;23.00;76.30
43524;DHT22;29120;52.006;6.020;2022-08-02T07:51:54;23.10;75.40
43524;DHT22;29120;52.006;6.020;2022-08-02T07:54:20;23.20;75.50
43524;DHT22;29120;52.006;6.020;2022-08-02T07:56:46;23.10;74.20
43524;DHT22;29120;52.006;6.020;2022-08-02T07:59:12;23.10;75.40
43524;DHT22;29120;52.006;6.020;2022-08-02T08:01:38;23.30;74.90
43524;DHT22;29120;52.006;6.020;2022-08-02T08:04:04;23.50;74.50
43524;DHT22;29120;52.006;6.020;2022-08-02T08:06:30;23.70;73.70
43524;DHT22;29120;52.006;6.020;2022-08-02T08:08:57;23.80;73.20
43524;DHT22;29120;52.006;6.020;2022-08-02T08:11:22;23.90;73.40
43524;DHT22;29120;52.006;6.020;2022-08-02T08:13:48;23.90;72.40
43524;DHT22;29120;52.006;6.020;2022-08-02T08:16:14;23.90;73.10
43524;DHT22;29120;52.006;6.020;2022-08-02T08:18:40;24.00;72.80
43524;DHT22;29120;52.006;6.020;2022-08-02T08:21:05;24.20;72.90
43524;DHT22;29120;52.006;6.020;2022-08-02T08:23:31;24.30;72.70
43524;DHT22;29120;52.006;6.020;2022-08-02T08:25:57;24.50;72.70
43524;DHT22;29120;52.006;6.020;2022-08-02T08:28:22;24.80;72.90
43524;DHT22;29120;52.006;6.020;2022-08-02T08:30:48;25.00;72.00
43524;DHT22;29120;52.006;6.020;2022-08-02T08:33:14;25.10;70.80
43524;DHT22;29120;52.006;6.020;2022-08-02T08:35:40;25.10;70.50
43524;DHT22;29120;52.006;6.020;2022-08-02T08:38:06;25.40;70.10
43524;DHT22;29120;52.006;6.020;2022-08-02T08:40:31;25.50;69.50
43524;DHT22;29120;52.006;6.020;2022-08-02T08:42:57;25.60;69.10
43524;DHT22;29120;52.006;6.020;2022-08-02T08:45:22;25.80;69.50
43524;DHT22;29120;52.006;6.020;2022-08-02T08:48:00;26.10;68.60
43524;DHT22;29120;52.006;6.020;2022-08-02T08:50:26;26.30;67.20
43524;DHT22;29120;52.006;6.020;2022-08-02T08:53:07;26.40;65.50
43524;DHT22;29120;52.006;6.020;2022-08-02T08:55:35;26.50;64.50
43524;DHT22;29120;52.006;6.020;2022-08-02T08:58:03;26.40;63.80
43524;DHT22;29120;52.006;6.020;2022-08-02T09:00:30;26.20;63.50
43524;DHT22;29120;52.006;6.020;2022-08-02T09:02:56;26.20;64.90
43524;DHT22;29120;52.006;6.020;2022-08-02T09:05:21;26.30;64.50
43524;DHT22;29120;52.006;6.020;2022-08-02T09:07:49;26.40;64.00
43524;DHT22;29120;52.006;6.020;2022-08-02T09:16:06;27.20;63.30
43524;DHT22;29120;52.006;6.020;2022-08-02T09:18:33;27.70;62.50
43524;DHT22;29120;52.006;6.020;2022-08-02T09:21:00;27.90;60.50
43524;DHT22;29120;52.006;6.020;2022-08-02T09:23:37;28.20;60.10
43524;DHT22;29120;52.006;6.020;2022-08-02T09:26:11;28.30;59.70
43524;DHT22;29120;52.006;6.020;2022-08-02T09:28:40;28.60;59.80
43524;DHT22;29120;52.006;6.020;2022-08-02T09:31:17;28.90;58.90
43524;DHT22;29120;52.006;6.020;2022-08-02T09:33:45;29.30;58.60
43524;DHT22;29120;52.006;6.020;2022-08-02T09:36:15;29.60;57.30
43524;DHT22;29120;52.006;6.020;2022-08-02T09:38:54;29.90;56.20
43524;DHT22;29120;52.006;6.020;2022-08-02T09:41:24;30.10;55.00
43524;DHT22;29120;52.006;6.020;2022-08-02T09:43:51;30.30;53.90
43524;DHT22;29120;52.006;6.020;2022-08-02T09:46:23;30.70;53.70
43524;DHT22;29120;52.006;6.020;2022-08-02T09:48:51;31.20;52.30
43524;DHT22;29120;52.006;6.020;2022-08-02T09:51:38;31.50;51.90
43524;DHT22;29120;52.006;6.020;2022-08-02T09:54:07;31.70;51.50
43524;DHT22;29120;52.006;6.020;2022-08-02T09:56:49;31.80;50.30
43524;DHT22;29120;52.006;6.020;2022-08-02T09:59:16;31.70;49.50
43524;DHT22;29120;52.006;6.020;2022-08-02T10:01:43;31.90;48.80
43524;DHT22;29120;52.006;6.020;2022-08-02T10:04:11;32.30;46.60
43524;DHT22;29120;52.006;6.020;2022-08-02T10:06:38;32.90;45.70
43524;DHT22;29120;52.006;6.020;2022-08-02T10:09:08;33.30;45.00
43524;DHT22;29120;52.006;6.020;2022-08-02T10:11:34;33.80;45.10
43524;DHT22;29120;52.006;6.020;2022-08-02T10:14:05;33.80;44.70
43524;DHT22;29120;52.006;6.020;2022-08-02T10:16:33;33.70;45.40
43524;DHT22;29120;52.006;6.020;2022-08-02T10:18:59;33.90;45.60
43524;DHT22;29120;52.006;6.020;2022-08-02T10:21:36;34.20;45.40
43524;DHT22;29120;52.006;6.020;2022-08-02T10:24:15;34.60;44.90
43524;DHT22;29120;52.006;6.020;2022-08-02T10:26:45;35.00;44.90
43524;DHT22;29120;52.006;6.020;2022-08-02T10:29:15;35.40;44.90
43524;DHT22;29120;52.006;6.020;2022-08-02T10:31:54;35.60;43.60
43524;DHT22;29120;52.006;6.020;2022-08-02T10:34:35;35.70;44.10
43524;DHT22;29120;52.006;6.020;2022-08-02T10:37:03;35.50;43.70
43524;DHT22;29120;52.006;6.020;2022-08-02T10:39:41;35.00;43.80
43524;DHT22;29120;52.006;6.020;2022-08-02T10:42:07;34.90;43.90
43524;DHT22;29120;52.006;6.020;2022-08-02T10:44:33;34.50;43.80
43524;DHT22;29120;52.006;6.020;2022-08-02T10:47:21;34.20;44.70
43524;DHT22;29120;52.006;6.020;2022-08-02T10:49:55;33.90;44.90
43524;DHT22;29120;52.006;6.020;2022-08-02T10:52:23;33.50;45.20
43524;DHT22;29120;52.006;6.020;2022-08-02T10:55:00;33.50;45.40
43524;DHT22;29120;52.006;6.020;2022-08-02T10:57:31;33.60;45.40
43524;DHT22;29120;52.006;6.020;2022-08-02T11:00:24;33.50;45.60
43524;DHT22;29120;52.006;6.020;2022-08-02T11:02:50;33.70;45.30
43524;DHT22;29120;52.006;6.020;2022-08-02T11:05:28;34.00;44.80
43524;DHT22;29120;52.006;6.020;2022-08-02T11:07:54;34.30;44.10
43524;DHT22;29120;52.006;6.020;2022-08-02T11:18:12;33.70;45.50
43524;DHT22;29120;52.006;6.020;2022-08-02T11:20:38;33.70;45.00
43524;DHT22;29120;52.006;6.020;2022-08-02T11:28:55;34.10;44.20
43524;DHT22;29120;52.006;6.020;2022-08-02T11:31:20;34.00;44.10
43524;DHT22;29120;52.006;6.020;2022-08-02T11:33:49;33.90;44.00
43524;DHT22;29120;52.006;6.020;2022-08-02T11:36:16;33.80;44.40
43524;DHT22;29120;52.006;6.020;2022-08-02T11:38:42;33.80;44.60
43524;DHT22;29120;52.006;6.020;2022-08-02T11:41:08;34.00;43.40
43524;DHT22;29120;52.006;6.020;2022-08-02T11:43:34;33.90;43.10
43524;DHT22;29120;52.006;6.020;2022-08-02T11:46:10;34.00;43.30
43524;DHT22;29120;52.006;6.020;2022-08-02T11:48:37;34.30;43.30
43524;DHT22;29120;52.006;6.020;2022-08-02T11:51:15;34.80;42.80
43524;DHT22;29120;52.006;6.020;2022-08-02T11:53:47;35.30;42.60
43524;DHT22;29120;52.006;6.020;2022-08-02T11:56:14;35.60;40.70
43524;DHT22;29120;52.006;6.020;2022-08-02T11:58:40;36.00;41.90
43524;DHT22;29120;52.006;6.020;2022-08-02T12:01:06;36.80;41.50
43524;DHT22;29120;52.006;6.020;2022-08-02T12:03:36;37.30;40.60
43524;DHT22;29120;52.006;6.020;2022-08-02T12:06:03;36.80;39.50
43524;DHT22;29120;52.006;6.020;2022-08-02T12:08:30;36.00;40.50
43524;DHT22;29120;52.006;6.020;2022-08-02T12:10:56;35.50;40.50
43524;DHT22;29120;52.006;6.020;2022-08-02T12:13:21;35.70;40.90
43524;DHT22;29120;52.006;6.020;2022-08-02T12:15:47;36.30;40.80
43524;DHT22;29120;52.006;6.020;2022-08-02T12:18:15;36.30;40.20
43524;DHT22;29120;52.006;6.020;2022-08-02T12:21:01;36.00;39.90
43524;DHT22;29120;52.006;6.020;2022-08-02T12:23:27;35.90;40.40
43524;DHT22;29120;52.006;6.020;2022-08-02T12:26:07;35.90;40.90
43524;DHT22;29120;52.006;6.020;2022-08-02T12:28:38;36.40;40.40
43524;DHT22;29120;52.006;6.020;2022-08-02T12:31:04;36.80;40.00
43524;DHT22;29120;52.006;6.020;2022-08-02T12:36:17;37.70;39.10
43524;DHT22;29120;52.006;6.020;2022-08-02T12:38:55;37.90;38.80
43524;DHT22;29120;52.006;6.020;2022-08-02T12:41:21;38.00;37.90
43524;DHT22;29120;52.006;6.020;2022-08-02T12:43:49;38.10;37.70
43524;DHT22;29120;52.006;6.020;2022-08-02T12:46:20;37.60;37.00
43524;DHT22;29120;52.006;6.020;2022-08-02T12:48:46;37.20;37.40
43524;DHT22;29120;52.006;6.020;2022-08-02T12:51:26;36.80;36.90
43524;DHT22;29120;52.006;6.020;2022-08-02T12:54:10;36.30;38.20
43524;DHT22;29120;52.006;6.020;2022-08-02T12:56:38;36.20;38.90
43524;DHT22;29120;52.006;6.020;2022-08-02T12:59:04;36.00;38.70
43524;DHT22;29120;52.006;6.020;2022-08-02T13:01:30;36.50;38.90
43524;DHT22;29120;52.006;6.020;2022-08-02T13:03:56;37.50;39.10
43524;DHT22;29120;52.006;6.020;2022-08-02T13:06:23;38.00;37.90
43524;DHT22;29120;52.006;6.020;2022-08-02T13:08:49;38.40;37.80
43524;DHT22;29120;52.006;6.020;2022-08-02T13:11:15;38.60;37.30
43524;DHT22;29120;52.006;6.020;2022-08-02T13:13:41;38.60;36.50
43524;DHT22;29120;52.006;6.020;2022-08-02T13:16:09;38.20;37.00
43524;DHT22;29120;52.006;6.020;2022-08-02T13:18:35;38.10;37.10
43524;DHT22;29120;52.006;6.020;2022-08-02T13:21:00;38.20;37.40
43524;DHT22;29120;52.006;6.020;2022-08-02T13:23:28;37.70;37.00
43524;DHT22;29120;52.006;6.020;2022-08-02T13:25:54;36.80;36.70
43524;DHT22;29120;52.006;6.020;2022-08-02T13:28:20;36.10;37.30
43524;DHT22;29120;52.006;6.020;2022-08-02T13:30:46;36.10;38.00
43524;DHT22;29120;52.006;6.020;2022-08-02T13:33:12;36.30;37.60
43524;DHT22;29120;52.006;6.020;2022-08-02T13:35:38;36.50;37.40
43524;DHT22;29120;52.006;6.020;2022-08-02T13:38:03;36.50;37.50
43524;DHT22;29120;52.006;6.020;2022-08-02T13:40:31;36.60;38.00
43524;DHT22;29120;52.006;6.020;2022-08-02T13:42:57;36.60;37.50
43524;DHT22;29120;52.006;6.020;2022-08-02T13:45:23;36.50;37.90
43524;DHT22;29120;52.006;6.020;2022-08-02T13:47:48;36.30;37.90
43524;DHT22;29120;52.006;6.020;2022-08-02T13:50:14;36.50;38.30
43524;DHT22;29120;52.006;6.020;2022-08-02T13:52:40;36.90;37.50
43524;DHT22;29120;52.006;6.020;2022-08-02T13:55:06;36.90;36.90
43524;DHT22;29120;52.006;6.020;2022-08-02T13:57:32;36.70;37.20
43524;DHT22;29120;52.006;6.020;2022-08-02T13:59:58;36.40;37.20
43524;DHT22;29120;52.006;6.020;2022-08-02T14:02:24;36.30;37.40
43524;DHT22;29120;52.006;6.020;2022-08-02T14:04:49;36.30;37.70
43524;DHT22;29120;52.006;6.020;2022-08-02T14:07:15;36.50;37.60
43524;DHT22;29120;52.006;6.020;2022-08-02T14:09:41;36.50;37.20
43524;DHT22;29120;52.006;6.020;2022-08-02T14:12:08;36.60;37.10
43524;DHT22;29120;52.006;6.020;2022-08-02T14:14:34;36.80;36.60
43524;DHT22;29120;52.006;6.020;2022-08-02T14:17:00;36.70;36.00
43524;DHT22;29120;52.006;6.020;2022-08-02T14:19:25;36.70;35.60
43524;DHT22;29120;52.006;6.020;2022-08-02T14:21:51;36.60;35.60
43524;DHT22;29120;52.006;6.020;2022-08-02T14:24:20;36.40;36.00
43524;DHT22;29120;52.006;6.020;2022-08-02T14:26:47;36.30;36.00
43524;DHT22;29120;52.006;6.020;2022-08-02T14:29:14;36.30;36.40
43524;DHT22;29120;52.006;6.020;2022-08-02T14:31:40;36.40;36.60
43524;DHT22;29120;52.006;6.020;2022-08-02T14:34:05;36.40;36.20
43524;DHT22;29120;52.006;6.020;2022-08-02T14:36:31;36.40;36.30
43524;DHT22;29120;52.006;6.020;2022-08-02T14:38:56;36.30;35.70
43524;DHT22;29120;52.006;6.020;2022-08-02T14:41:22;36.10;36.10
43524;DHT22;29120;52.006;6.020;2022-08-02T14:43:48;36.10;36.50
43524;DHT22;29120;52.006;6.020;2022-08-02T14:46:36;36.20;37.00
43524;DHT22;29120;52.006;6.020;2022-08-02T14:49:02;36.10;37.20
43524;DHT22;29120;52.006;6.020;2022-08-02T14:51:30;36.10;37.40
43524;DHT22;29120;52.006;6.020;2022-08-02T14:53:56;36.10;37.60
43524;DHT22;29120;52.006;6.020;2022-08-02T14:56:22;35.90;37.40
43524;DHT22;29120;52.006;6.020;2022-08-02T14:58:47;35.30;36.70
43524;DHT22;29120;52.006;6.020;2022-08-02T15:01:13;34.90;37.20
43524;DHT22;29120;52.006;6.020;2022-08-02T15:03:38;34.40;37.40
43524;DHT22;29120;52.006;6.020;2022-08-02T15:06:04;33.90;38.20
43524;DHT22;29120;52.006;6.020;2022-08-02T15:08:29;33.80;38.90
43524;DHT22;29120;52.006;6.020;2022-08-02T15:10:55;33.70;39.10
43524;DHT22;29120;52.006;6.020;2022-08-02T15:13:21;33.50;39.20
43524;DHT22;29120;52.006;6.020;2022-08-02T15:15:46;33.20;39.30
43524;DHT22;29120;52.006;6.020;2022-08-02T15:18:12;33.00;39.70
43524;DHT22;29120;52.006;6.020;2022-08-02T15:20:38;32.70;39.80
43524;DHT22;29120;52.006;6.020;2022-08-02T15:23:04;32.40;40.40
43524;DHT22;29120;52.006;6.020;2022-08-02T15:25:30;32.20;41.00
43524;DHT22;29120;52.006;6.020;2022-08-02T15:27:55;32.00;41.50
43524;DHT22;29120;52.006;6.020;2022-08-02T15:30:21;31.80;41.80
43524;DHT22;29120;52.006;6.020;2022-08-02T15:32:46;31.70;42.30
43524;DHT22;29120;52.006;6.020;2022-08-02T15:35:13;31.70;42.60
43524;DHT22;29120;52.006;6.020;2022-08-02T15:37:38;31.60;42.50
43524;DHT22;29120;52.006;6.020;2022-08-02T15:40:04;31.40;42.50
43524;DHT22;29120;52.006;6.020;2022-08-02T15:42:30;31.30;42.70
43524;DHT22;29120;52.006;6.020;2022-08-02T15:44:56;31.00;43.40
43524;DHT22;29120;52.006;6.020;2022-08-02T15:47:21;30.90;43.20
43524;DHT22;29120;52.006;6.020;2022-08-02T15:49:47;30.70;43.40
43524;DHT22;29120;52.006;6.020;2022-08-02T15:52:13;30.70;43.60
43524;DHT22;29120;52.006;6.020;2022-08-02T15:54:38;30.60;43.80
43524;DHT22;29120;52.006;6.020;2022-08-02T15:57:05;30.60;43.90
43524;DHT22;29120;52.006;6.020;2022-08-02T15:59:30;30.60;44.00
43524;DHT22;29120;52.006;6.020;2022-08-02T16:01:56;30.50;44.10
43524;DHT22;29120;52.006;6.020;2022-08-02T16:04:21;30.50;44.40
43524;DHT22;29120;52.006;6.020;2022-08-02T16:06:47;30.50;44.30
43524;DHT22;29120;52.006;6.020;2022-08-02T16:09:12;30.40;44.20